New Mighty — 3FMN — position and weather

sailwx.info

Track history (hours):
 
Tides and Currents Weather Stations Pressure Air Temp Water Temp Dewpoint Dewpoint Depression Visibility Wind Speed Wind Dir Waves Ship Positions

New Mighty

Last reported at 2015-Apr-19 06:05 UTC. Time now 2015-May-04 05:59 UTC.
Position N 01°60' E 102°13'.
Warning: this ship's position is 14 days out of date.

Length 292 m; draft 9.4 m.

Type: Cargo ship. MMSI: 354199000.

Date/timePositionNaut miles runAvg speedWind from/ knotsBaromVisibWave heightAir tempDewpointWater temp
2015-Apr-19 06:05N 01°60' E 102°13'815.1
2015-Apr-19 05:33N 01°55' E 102°20'1514.9
2015-Apr-19 04:33N 01°49' E 102°33'1413.9
2015-Apr-19 03:33N 01°44' E 102°46'6713.4
2015-Apr-18 22:32N 01°09' E 103°43'1211.9
2015-Apr-18 21:33N 01°13' E 103°54'6 6.2
2015-Apr-18 20:33N 01°17' E 103°59'0 0.2
2015-Apr-18 19:32N 01°17' E 103°59'0 0.0
2015-Apr-18 18:29N 01°17' E 103°59'0 0.2
2015-Apr-18 17:11N 01°17' E 103°59'0 0.1
2015-Apr-18 16:29N 01°17' E 103°59'0 0.0
2015-Apr-18 15:17N 01°17' E 103°59'0 0.0
2015-Apr-18 13:29N 01°17' E 103°59'0 0.0
2015-Apr-18 12:29N 01°17' E 103°59'0 0.0
2015-Apr-18 11:32N 01°17' E 103°59'0 0.0
2015-Apr-18 10:29N 01°17' E 103°59'0 0.2
2015-Apr-18 08:30N 01°17' E 103°59'0 0.1
2015-Apr-18 07:29N 01°17' E 103°59'2 1.8
2015-Apr-18 06:33N 01°16' E 103°58'8 7.8
2015-Apr-18 05:34N 01°16' E 104°06'8 8.4
2015-Apr-18 04:33N 01°18' E 104°14'  
2015-Apr-09 12:19N 34°47' E 139°19'1013.5
2015-Apr-09 11:33N 34°55' E 139°28'1313.5
2015-Apr-09 10:33N 35°03' E 139°40'1212.1
2015-Apr-09 09:33N 35°14' E 139°46'1111.0
2015-Apr-09 08:33N 35°25' E 139°44'7 7.2
2015-Apr-09 07:34N 35°22' E 139°52'0 0.3
2015-Apr-09 06:33N 35°22' E 139°52'  
Track history (hours):
 
Tides and Currents Weather Stations Pressure Air Temp Water Temp Dewpoint Dewpoint Depression Visibility Wind Speed Wind Dir Waves Ship Positions

New Mighty

Last reported at 2015-Apr-19 06:05 UTC. Time now 2015-May-04 05:59 UTC.
Position N 01°60' E 102°13'.
Warning: this ship's position is 14 days out of date.

Length 292 m; draft 9.4 m.

Type: Cargo ship. MMSI: 354199000.

Date/timePositionNaut miles runAvg speedWind from/ knotsBaromVisibWave heightAir tempDewpointWater temp
2015-Apr-19 06:05N 01°60' E 102°13'815.1
2015-Apr-19 05:33N 01°55' E 102°20'1514.9
2015-Apr-19 04:33N 01°49' E 102°33'1413.9
2015-Apr-19 03:33N 01°44' E 102°46'6713.4
2015-Apr-18 22:32N 01°09' E 103°43'1211.9
2015-Apr-18 21:33N 01°13' E 103°54'6 6.2
2015-Apr-18 20:33N 01°17' E 103°59'0 0.2
2015-Apr-18 19:32N 01°17' E 103°59'0 0.0
2015-Apr-18 18:29N 01°17' E 103°59'0 0.2
2015-Apr-18 17:11N 01°17' E 103°59'0 0.1
2015-Apr-18 16:29N 01°17' E 103°59'0 0.0
2015-Apr-18 15:17N 01°17' E 103°59'0 0.0
2015-Apr-18 13:29N 01°17' E 103°59'0 0.0
2015-Apr-18 12:29N 01°17' E 103°59'0 0.0
2015-Apr-18 11:32N 01°17' E 103°59'0 0.0
2015-Apr-18 10:29N 01°17' E 103°59'0 0.2
2015-Apr-18 08:30N 01°17' E 103°59'0 0.1
2015-Apr-18 07:29N 01°17' E 103°59'2 1.8
2015-Apr-18 06:33N 01°16' E 103°58'8 7.8
2015-Apr-18 05:34N 01°16' E 104°06'8 8.4
2015-Apr-18 04:33N 01°18' E 104°14'  
2015-Apr-09 12:19N 34°47' E 139°19'1013.5
2015-Apr-09 11:33N 34°55' E 139°28'1313.5
2015-Apr-09 10:33N 35°03' E 139°40'1212.1
2015-Apr-09 09:33N 35°14' E 139°46'1111.0
2015-Apr-09 08:33N 35°25' E 139°44'7 7.2
2015-Apr-09 07:34N 35°22' E 139°52'0 0.3
2015-Apr-09 06:33N 35°22' E 139°52'  

Dump ship's entire track history